Etty, Kentucky
Current Conditions -  °F | °C
As of 9:55 PM on Sunday 23 Nov 2014 (Local Time) from KPBX Reporting Station
Broken Clouds Broken Clouds  
Wind Chill: 59°   Ceiling: 7000
Heat Index: 59°   Visibility: 10mi
Dew Point: 52°   Wind: 9mph
Humidity: 78%   Direction: 170°S
Pressure: 29.51"   Gusts: 18mph
Location:  37.3022°N, 82.6547°W
Report Text: KPBX 240255Z AUTO 17008G16KT 140V210 10SM BKN070 15/11 A2951 RMK AO2 LTG DSNT SE T01490111
Loading
Personal Weather Stations






























Interactive Weather Map New forecast layout! Learn more

10-Day Weather Forecast

Advertisements
Track Severe Weather on mobile